sensor_id;sensor_type;location;lat;lon;timestamp;P1;durP1;ratioP1;P2;durP2;ratioP2
6388;SDS011;3227;42.654;23.360;2023-04-20T00:00:00;12.50;;;7.83;;
6388;SDS011;3227;42.654;23.360;2023-04-20T00:02:33;14.43;;;7.80;;
6388;SDS011;3227;42.654;23.360;2023-04-20T00:05:02;14.20;;;8.07;;
6388;SDS011;3227;42.654;23.360;2023-04-20T00:07:29;11.50;;;7.43;;
6388;SDS011;3227;42.654;23.360;2023-04-20T00:09:57;9.13;;;6.50;;
6388;SDS011;3227;42.654;23.360;2023-04-20T00:12:24;15.50;;;7.63;;
6388;SDS011;3227;42.654;23.360;2023-04-20T00:14:50;11.60;;;6.67;;
6388;SDS011;3227;42.654;23.360;2023-04-20T00:17:17;11.50;;;7.03;;
6388;SDS011;3227;42.654;23.360;2023-04-20T00:19:44;10.80;;;7.13;;
6388;SDS011;3227;42.654;23.360;2023-04-20T00:22:12;11.47;;;7.27;;
6388;SDS011;3227;42.654;23.360;2023-04-20T00:24:39;11.60;;;7.50;;
6388;SDS011;3227;42.654;23.360;2023-04-20T00:27:06;10.73;;;7.10;;
6388;SDS011;3227;42.654;23.360;2023-04-20T00:29:38;16.50;;;6.67;;
6388;SDS011;3227;42.654;23.360;2023-04-20T00:32:05;15.33;;;7.40;;
6388;SDS011;3227;42.654;23.360;2023-04-20T00:34:31;12.53;;;6.93;;
6388;SDS011;3227;42.654;23.360;2023-04-20T00:36:58;12.17;;;7.47;;
6388;SDS011;3227;42.654;23.360;2023-04-20T00:39:26;11.70;;;7.87;;
6388;SDS011;3227;42.654;23.360;2023-04-20T00:41:53;11.27;;;7.67;;
6388;SDS011;3227;42.654;23.360;2023-04-20T00:44:20;10.53;;;7.53;;
6388;SDS011;3227;42.654;23.360;2023-04-20T00:46:47;10.43;;;7.90;;
6388;SDS011;3227;42.654;23.360;2023-04-20T00:49:23;10.33;;;7.53;;
6388;SDS011;3227;42.654;23.360;2023-04-20T00:51:52;15.90;;;8.33;;
6388;SDS011;3227;42.654;23.360;2023-04-20T00:54:19;10.63;;;7.53;;
6388;SDS011;3227;42.654;23.360;2023-04-20T00:56:47;13.20;;;8.70;;
6388;SDS011;3227;42.654;23.360;2023-04-20T00:59:15;12.27;;;8.40;;
6388;SDS011;3227;42.654;23.360;2023-04-20T01:01:42;10.40;;;7.73;;
6388;SDS011;3227;42.654;23.360;2023-04-20T01:04:09;11.33;;;7.87;;
6388;SDS011;3227;42.654;23.360;2023-04-20T01:06:36;12.63;;;7.93;;
6388;SDS011;3227;42.654;23.360;2023-04-20T01:09:02;14.03;;;8.10;;
6388;SDS011;3227;42.654;23.360;2023-04-20T01:11:29;11.20;;;8.43;;
6388;SDS011;3227;42.654;23.360;2023-04-20T01:13:58;11.63;;;7.87;;
6388;SDS011;3227;42.654;23.360;2023-04-20T01:16:25;11.73;;;8.13;;
6388;SDS011;3227;42.654;23.360;2023-04-20T01:18:51;15.90;;;8.50;;
6388;SDS011;3227;42.654;23.360;2023-04-20T01:21:19;12.37;;;8.07;;
6388;SDS011;3227;42.654;23.360;2023-04-20T01:23:48;11.73;;;8.27;;
6388;SDS011;3227;42.654;23.360;2023-04-20T01:26:16;13.83;;;8.47;;
6388;SDS011;3227;42.654;23.360;2023-04-20T01:28:49;12.40;;;7.90;;
6388;SDS011;3227;42.654;23.360;2023-04-20T01:31:16;11.40;;;7.87;;
6388;SDS011;3227;42.654;23.360;2023-04-20T01:33:42;13.00;;;8.17;;
6388;SDS011;3227;42.654;23.360;2023-04-20T01:36:09;12.30;;;8.30;;
6388;SDS011;3227;42.654;23.360;2023-04-20T01:38:36;12.77;;;8.57;;
6388;SDS011;3227;42.654;23.360;2023-04-20T01:41:05;12.57;;;8.63;;
6388;SDS011;3227;42.654;23.360;2023-04-20T01:43:34;11.27;;;7.87;;
6388;SDS011;3227;42.654;23.360;2023-04-20T01:46:02;12.20;;;7.83;;
6388;SDS011;3227;42.654;23.360;2023-04-20T01:48:29;11.77;;;8.53;;
6388;SDS011;3227;42.654;23.360;2023-04-20T01:50:55;13.60;;;8.17;;
6388;SDS011;3227;42.654;23.360;2023-04-20T01:53:22;11.13;;;8.33;;
6388;SDS011;3227;42.654;23.360;2023-04-20T01:55:50;12.23;;;8.93;;
6388;SDS011;3227;42.654;23.360;2023-04-20T01:58:18;13.37;;;8.20;;
6388;SDS011;3227;42.654;23.360;2023-04-20T02:00:45;12.30;;;8.10;;
6388;SDS011;3227;42.654;23.360;2023-04-20T02:03:12;12.03;;;8.37;;
6388;SDS011;3227;42.654;23.360;2023-04-20T02:05:38;16.43;;;7.77;;
6388;SDS011;3227;42.654;23.360;2023-04-20T02:08:05;11.47;;;7.93;;
6388;SDS011;3227;42.654;23.360;2023-04-20T02:10:32;12.37;;;8.47;;
6388;SDS011;3227;42.654;23.360;2023-04-20T02:12:59;16.43;;;8.80;;
6388;SDS011;3227;42.654;23.360;2023-04-20T02:15:27;16.17;;;8.20;;
6388;SDS011;3227;42.654;23.360;2023-04-20T02:17:54;12.30;;;8.13;;
6388;SDS011;3227;42.654;23.360;2023-04-20T02:20:22;11.20;;;7.67;;
6388;SDS011;3227;42.654;23.360;2023-04-20T02:22:49;11.27;;;7.47;;
6388;SDS011;3227;42.654;23.360;2023-04-20T02:25:16;11.10;;;7.80;;
6388;SDS011;3227;42.654;23.360;2023-04-20T02:27:43;11.83;;;8.13;;
6388;SDS011;3227;42.654;23.360;2023-04-20T02:30:10;13.27;;;8.37;;
6388;SDS011;3227;42.654;23.360;2023-04-20T02:32:38;12.73;;;8.37;;
6388;SDS011;3227;42.654;23.360;2023-04-20T02:35:05;12.27;;;7.97;;
6388;SDS011;3227;42.654;23.360;2023-04-20T02:37:33;15.80;;;8.60;;
6388;SDS011;3227;42.654;23.360;2023-04-20T02:39:59;14.33;;;8.77;;
6388;SDS011;3227;42.654;23.360;2023-04-20T02:42:26;14.17;;;8.37;;
6388;SDS011;3227;42.654;23.360;2023-04-20T02:44:53;12.40;;;9.10;;
6388;SDS011;3227;42.654;23.360;2023-04-20T02:47:20;13.87;;;9.53;;
6388;SDS011;3227;42.654;23.360;2023-04-20T02:49:48;14.13;;;8.60;;
6388;SDS011;3227;42.654;23.360;2023-04-20T02:52:15;10.67;;;8.27;;
6388;SDS011;3227;42.654;23.360;2023-04-20T02:54:42;14.60;;;9.43;;
6388;SDS011;3227;42.654;23.360;2023-04-20T02:57:08;11.97;;;8.67;;
6388;SDS011;3227;42.654;23.360;2023-04-20T02:59:36;12.87;;;8.63;;
6388;SDS011;3227;42.654;23.360;2023-04-20T03:02:03;11.37;;;8.17;;
6388;SDS011;3227;42.654;23.360;2023-04-20T03:04:30;14.10;;;9.30;;
6388;SDS011;3227;42.654;23.360;2023-04-20T03:06:58;13.13;;;8.80;;
6388;SDS011;3227;42.654;23.360;2023-04-20T03:09:25;11.30;;;8.40;;
6388;SDS011;3227;42.654;23.360;2023-04-20T03:11:52;12.70;;;8.97;;
6388;SDS011;3227;42.654;23.360;2023-04-20T03:14:20;12.83;;;8.10;;
6388;SDS011;3227;42.654;23.360;2023-04-20T03:16:46;11.43;;;7.90;;
6388;SDS011;3227;42.654;23.360;2023-04-20T03:19:14;11.67;;;8.20;;
6388;SDS011;3227;42.654;23.360;2023-04-20T03:21:41;12.33;;;8.60;;
6388;SDS011;3227;42.654;23.360;2023-04-20T03:24:09;11.43;;;8.67;;
6388;SDS011;3227;42.654;23.360;2023-04-20T03:26:36;11.63;;;8.13;;
6388;SDS011;3227;42.654;23.360;2023-04-20T03:29:03;11.57;;;8.47;;
6388;SDS011;3227;42.654;23.360;2023-04-20T03:31:30;13.40;;;8.23;;
6388;SDS011;3227;42.654;23.360;2023-04-20T03:33:56;15.50;;;8.50;;
6388;SDS011;3227;42.654;23.360;2023-04-20T03:36:23;13.23;;;8.90;;
6388;SDS011;3227;42.654;23.360;2023-04-20T03:38:50;15.47;;;9.17;;
6388;SDS011;3227;42.654;23.360;2023-04-20T03:41:18;14.13;;;8.63;;
6388;SDS011;3227;42.654;23.360;2023-04-20T03:43:45;13.70;;;8.83;;
6388;SDS011;3227;42.654;23.360;2023-04-20T03:46:12;12.57;;;8.27;;
6388;SDS011;3227;42.654;23.360;2023-04-20T03:48:38;17.00;;;9.00;;
6388;SDS011;3227;42.654;23.360;2023-04-20T03:51:05;12.77;;;9.17;;
6388;SDS011;3227;42.654;23.360;2023-04-20T03:53:32;16.13;;;8.37;;
6388;SDS011;3227;42.654;23.360;2023-04-20T03:56:00;16.30;;;9.30;;
6388;SDS011;3227;42.654;23.360;2023-04-20T03:58:28;13.20;;;8.80;;
6388;SDS011;3227;42.654;23.360;2023-04-20T04:00:59;12.47;;;8.87;;
6388;SDS011;3227;42.654;23.360;2023-04-20T04:03:27;14.83;;;8.93;;
6388;SDS011;3227;42.654;23.360;2023-04-20T04:05:54;16.70;;;8.80;;
6388;SDS011;3227;42.654;23.360;2023-04-20T04:08:21;13.13;;;8.63;;
6388;SDS011;3227;42.654;23.360;2023-04-20T04:10:47;11.87;;;8.13;;
6388;SDS011;3227;42.654;23.360;2023-04-20T04:13:15;13.70;;;9.07;;
6388;SDS011;3227;42.654;23.360;2023-04-20T04:15:43;13.40;;;9.10;;
6388;SDS011;3227;42.654;23.360;2023-04-20T04:18:15;13.77;;;8.63;;
6388;SDS011;3227;42.654;23.360;2023-04-20T04:20:41;13.83;;;9.40;;
6388;SDS011;3227;42.654;23.360;2023-04-20T04:23:08;15.13;;;9.23;;
6388;SDS011;3227;42.654;23.360;2023-04-20T04:25:36;16.77;;;9.20;;
6388;SDS011;3227;42.654;23.360;2023-04-20T04:28:03;12.70;;;8.83;;
6388;SDS011;3227;42.654;23.360;2023-04-20T04:30:30;18.40;;;9.80;;
6388;SDS011;3227;42.654;23.360;2023-04-20T04:32:58;14.97;;;9.90;;
6388;SDS011;3227;42.654;23.360;2023-04-20T04:35:28;16.60;;;10.23;;
6388;SDS011;3227;42.654;23.360;2023-04-20T04:37:55;18.57;;;9.27;;
6388;SDS011;3227;42.654;23.360;2023-04-20T04:40:22;13.37;;;9.73;;
6388;SDS011;3227;42.654;23.360;2023-04-20T04:42:49;16.27;;;9.60;;
6388;SDS011;3227;42.654;23.360;2023-04-20T04:45:16;16.67;;;9.73;;
6388;SDS011;3227;42.654;23.360;2023-04-20T04:47:43;16.33;;;9.93;;
6388;SDS011;3227;42.654;23.360;2023-04-20T04:50:11;18.40;;;10.90;;
6388;SDS011;3227;42.654;23.360;2023-04-20T04:52:38;21.90;;;10.50;;
6388;SDS011;3227;42.654;23.360;2023-04-20T04:55:06;14.60;;;10.93;;
6388;SDS011;3227;42.654;23.360;2023-04-20T04:57:33;17.67;;;10.20;;
6388;SDS011;3227;42.654;23.360;2023-04-20T05:00:03;18.60;;;10.73;;
6388;SDS011;3227;42.654;23.360;2023-04-20T05:02:33;16.73;;;9.83;;
6388;SDS011;3227;42.654;23.360;2023-04-20T05:05:01;14.07;;;9.93;;
6388;SDS011;3227;42.654;23.360;2023-04-20T05:07:30;17.30;;;10.37;;
6388;SDS011;3227;42.654;23.360;2023-04-20T05:09:57;17.90;;;10.60;;
6388;SDS011;3227;42.654;23.360;2023-04-20T05:12:23;19.33;;;10.37;;
6388;SDS011;3227;42.654;23.360;2023-04-20T05:14:50;17.33;;;11.33;;
6388;SDS011;3227;42.654;23.360;2023-04-20T05:17:17;18.63;;;10.67;;
6388;SDS011;3227;42.654;23.360;2023-04-20T05:19:44;15.43;;;10.47;;
6388;SDS011;3227;42.654;23.360;2023-04-20T05:22:11;20.57;;;10.77;;
6388;SDS011;3227;42.654;23.360;2023-04-20T05:24:39;18.30;;;11.33;;
6388;SDS011;3227;42.654;23.360;2023-04-20T05:27:06;15.90;;;11.20;;
6388;SDS011;3227;42.654;23.360;2023-04-20T05:29:33;16.77;;;11.33;;
6388;SDS011;3227;42.654;23.360;2023-04-20T05:32:00;18.50;;;10.80;;
6388;SDS011;3227;42.654;23.360;2023-04-20T05:34:27;20.33;;;11.60;;
6388;SDS011;3227;42.654;23.360;2023-04-20T05:36:54;19.43;;;11.47;;
6388;SDS011;3227;42.654;23.360;2023-04-20T05:39:21;17.70;;;12.00;;
6388;SDS011;3227;42.654;23.360;2023-04-20T05:41:49;13.93;;;10.43;;
6388;SDS011;3227;42.654;23.360;2023-04-20T05:44:16;18.57;;;10.83;;
6388;SDS011;3227;42.654;23.360;2023-04-20T05:46:43;16.30;;;11.97;;
6388;SDS011;3227;42.654;23.360;2023-04-20T05:49:10;17.27;;;10.77;;
6388;SDS011;3227;42.654;23.360;2023-04-20T05:51:36;15.40;;;11.10;;
6388;SDS011;3227;42.654;23.360;2023-04-20T05:54:03;20.30;;;11.83;;
6388;SDS011;3227;42.654;23.360;2023-04-20T05:56:30;17.43;;;11.37;;
6388;SDS011;3227;42.654;23.360;2023-04-20T05:58:59;17.77;;;11.77;;
6388;SDS011;3227;42.654;23.360;2023-04-20T06:01:26;17.87;;;12.03;;
6388;SDS011;3227;42.654;23.360;2023-04-20T06:03:53;18.50;;;11.80;;
6388;SDS011;3227;42.654;23.360;2023-04-20T06:06:20;16.87;;;11.23;;
6388;SDS011;3227;42.654;23.360;2023-04-20T06:08:46;17.93;;;11.37;;
6388;SDS011;3227;42.654;23.360;2023-04-20T06:11:15;17.30;;;12.47;;
6388;SDS011;3227;42.654;23.360;2023-04-20T06:13:41;16.07;;;12.50;;
6388;SDS011;3227;42.654;23.360;2023-04-20T06:16:09;17.70;;;12.50;;
6388;SDS011;3227;42.654;23.360;2023-04-20T06:18:36;18.13;;;11.93;;
6388;SDS011;3227;42.654;23.360;2023-04-20T06:21:03;18.30;;;12.90;;
6388;SDS011;3227;42.654;23.360;2023-04-20T06:23:30;16.53;;;11.90;;
6388;SDS011;3227;42.654;23.360;2023-04-20T06:25:57;17.77;;;12.37;;
6388;SDS011;3227;42.654;23.360;2023-04-20T06:28:23;16.40;;;12.17;;
6388;SDS011;3227;42.654;23.360;2023-04-20T06:30:50;18.23;;;13.13;;
6388;SDS011;3227;42.654;23.360;2023-04-20T06:33:19;24.67;;;13.13;;
6388;SDS011;3227;42.654;23.360;2023-04-20T06:35:45;20.30;;;12.17;;
6388;SDS011;3227;42.654;23.360;2023-04-20T06:38:12;18.20;;;12.80;;
6388;SDS011;3227;42.654;23.360;2023-04-20T06:40:39;17.67;;;12.57;;
6388;SDS011;3227;42.654;23.360;2023-04-20T06:43:05;19.53;;;12.17;;
6388;SDS011;3227;42.654;23.360;2023-04-20T06:45:32;17.70;;;12.57;;
6388;SDS011;3227;42.654;23.360;2023-04-20T06:48:00;19.73;;;12.23;;
6388;SDS011;3227;42.654;23.360;2023-04-20T06:50:28;21.20;;;12.97;;
6388;SDS011;3227;42.654;23.360;2023-04-20T06:52:55;24.70;;;13.00;;
6388;SDS011;3227;42.654;23.360;2023-04-20T06:55:22;19.83;;;13.07;;
6388;SDS011;3227;42.654;23.360;2023-04-20T06:57:48;22.07;;;13.47;;
6388;SDS011;3227;42.654;23.360;2023-04-20T07:00:16;31.97;;;13.00;;
6388;SDS011;3227;42.654;23.360;2023-04-20T07:02:43;18.67;;;12.53;;
6388;SDS011;3227;42.654;23.360;2023-04-20T07:05:11;18.63;;;13.20;;
6388;SDS011;3227;42.654;23.360;2023-04-20T07:07:39;18.13;;;12.83;;
6388;SDS011;3227;42.654;23.360;2023-04-20T07:10:07;18.73;;;13.03;;
6388;SDS011;3227;42.654;23.360;2023-04-20T07:12:35;19.40;;;12.77;;
6388;SDS011;3227;42.654;23.360;2023-04-20T07:15:02;19.17;;;12.63;;
6388;SDS011;3227;42.654;23.360;2023-04-20T07:17:30;19.20;;;12.47;;
6388;SDS011;3227;42.654;23.360;2023-04-20T07:19:57;21.77;;;11.80;;
6388;SDS011;3227;42.654;23.360;2023-04-20T07:22:30;18.10;;;13.17;;
6388;SDS011;3227;42.654;23.360;2023-04-20T07:24:59;18.50;;;12.00;;
6388;SDS011;3227;42.654;23.360;2023-04-20T07:27:26;19.10;;;13.07;;
6388;SDS011;3227;42.654;23.360;2023-04-20T07:29:54;17.93;;;12.63;;
6388;SDS011;3227;42.654;23.360;2023-04-20T07:32:21;17.47;;;11.80;;
6388;SDS011;3227;42.654;23.360;2023-04-20T07:34:48;18.10;;;12.63;;
6388;SDS011;3227;42.654;23.360;2023-04-20T07:37:15;19.17;;;11.73;;
6388;SDS011;3227;42.654;23.360;2023-04-20T07:39:42;17.27;;;12.30;;
6388;SDS011;3227;42.654;23.360;2023-04-20T07:42:10;21.83;;;12.70;;
6388;SDS011;3227;42.654;23.360;2023-04-20T07:44:37;21.10;;;12.17;;
6388;SDS011;3227;42.654;23.360;2023-04-20T07:47:04;17.07;;;12.03;;
6388;SDS011;3227;42.654;23.360;2023-04-20T07:49:34;18.50;;;11.40;;
6388;SDS011;3227;42.654;23.360;2023-04-20T07:52:01;18.73;;;11.63;;
6388;SDS011;3227;42.654;23.360;2023-04-20T07:54:28;21.50;;;12.90;;
6388;SDS011;3227;42.654;23.360;2023-04-20T07:56:56;16.83;;;12.00;;
6388;SDS011;3227;42.654;23.360;2023-04-20T07:59:24;17.57;;;11.57;;
6388;SDS011;3227;42.654;23.360;2023-04-20T08:01:51;19.53;;;12.33;;
6388;SDS011;3227;42.654;23.360;2023-04-20T08:04:20;19.33;;;12.03;;
6388;SDS011;3227;42.654;23.360;2023-04-20T08:06:47;19.13;;;11.60;;
6388;SDS011;3227;42.654;23.360;2023-04-20T08:09:24;17.17;;;11.60;;
6388;SDS011;3227;42.654;23.360;2023-04-20T08:11:51;22.57;;;13.47;;
6388;SDS011;3227;42.654;23.360;2023-04-20T08:14:18;16.67;;;11.97;;
6388;SDS011;3227;42.654;23.360;2023-04-20T08:16:46;16.50;;;11.00;;
6388;SDS011;3227;42.654;23.360;2023-04-20T08:19:13;17.37;;;11.20;;
6388;SDS011;3227;42.654;23.360;2023-04-20T08:21:40;17.00;;;12.17;;
6388;SDS011;3227;42.654;23.360;2023-04-20T08:24:07;18.33;;;11.73;;
6388;SDS011;3227;42.654;23.360;2023-04-20T08:26:35;14.73;;;10.30;;
6388;SDS011;3227;42.654;23.360;2023-04-20T08:29:02;17.13;;;10.97;;
6388;SDS011;3227;42.654;23.360;2023-04-20T08:31:30;16.37;;;10.90;;
6388;SDS011;3227;42.654;23.360;2023-04-20T08:33:59;17.17;;;11.60;;
6388;SDS011;3227;42.654;23.360;2023-04-20T08:36:26;14.77;;;11.03;;
6388;SDS011;3227;42.654;23.360;2023-04-20T08:38:53;17.60;;;11.10;;
6388;SDS011;3227;42.654;23.360;2023-04-20T08:41:23;15.65;;;11.52;;
6388;SDS011;3227;42.654;23.360;2023-04-20T08:43:50;18.03;;;11.97;;
6388;SDS011;3227;42.654;23.360;2023-04-20T08:46:17;15.53;;;11.10;;
6388;SDS011;3227;42.654;23.360;2023-04-20T08:48:44;20.00;;;11.90;;
6388;SDS011;3227;42.654;23.360;2023-04-20T08:51:15;14.33;;;10.60;;
6388;SDS011;3227;42.654;23.360;2023-04-20T08:53:42;16.40;;;10.40;;
6388;SDS011;3227;42.654;23.360;2023-04-20T08:56:09;14.87;;;10.63;;
6388;SDS011;3227;42.654;23.360;2023-04-20T08:58:36;14.13;;;9.93;;
6388;SDS011;3227;42.654;23.360;2023-04-20T09:01:06;16.97;;;10.80;;
6388;SDS011;3227;42.654;23.360;2023-04-20T09:03:34;20.80;;;11.60;;
6388;SDS011;3227;42.654;23.360;2023-04-20T09:06:02;15.30;;;10.37;;
6388;SDS011;3227;42.654;23.360;2023-04-20T09:08:34;15.57;;;10.13;;
6388;SDS011;3227;42.654;23.360;2023-04-20T09:11:03;13.80;;;10.10;;
6388;SDS011;3227;42.654;23.360;2023-04-20T09:13:30;14.40;;;10.67;;
6388;SDS011;3227;42.654;23.360;2023-04-20T09:16:08;15.10;;;10.27;;
6388;SDS011;3227;42.654;23.360;2023-04-20T09:18:35;18.13;;;10.73;;
6388;SDS011;3227;42.654;23.360;2023-04-20T09:21:06;15.90;;;11.10;;
6388;SDS011;3227;42.654;23.360;2023-04-20T09:23:34;13.33;;;10.13;;
6388;SDS011;3227;42.654;23.360;2023-04-20T09:26:01;18.03;;;10.67;;
6388;SDS011;3227;42.654;23.360;2023-04-20T09:28:34;13.10;;;9.70;;
6388;SDS011;3227;42.654;23.360;2023-04-20T09:31:16;18.50;;;10.73;;
6388;SDS011;3227;42.654;23.360;2023-04-20T09:33:54;14.67;;;10.10;;
6388;SDS011;3227;42.654;23.360;2023-04-20T09:36:22;14.40;;;10.03;;
6388;SDS011;3227;42.654;23.360;2023-04-20T09:39:01;15.43;;;10.70;;
6388;SDS011;3227;42.654;23.360;2023-04-20T09:41:29;16.53;;;9.90;;
6388;SDS011;3227;42.654;23.360;2023-04-20T09:43:57;14.77;;;10.07;;
6388;SDS011;3227;42.654;23.360;2023-04-20T09:46:27;13.93;;;9.90;;
6388;SDS011;3227;42.654;23.360;2023-04-20T09:48:56;15.87;;;10.23;;
6388;SDS011;3227;42.654;23.360;2023-04-20T09:51:24;15.43;;;10.47;;
6388;SDS011;3227;42.654;23.360;2023-04-20T09:53:53;17.10;;;10.67;;
6388;SDS011;3227;42.654;23.360;2023-04-20T09:56:22;16.33;;;10.43;;
6388;SDS011;3227;42.654;23.360;2023-04-20T09:58:51;13.53;;;10.30;;
6388;SDS011;3227;42.654;23.360;2023-04-20T10:01:18;13.87;;;10.30;;
6388;SDS011;3227;42.654;23.360;2023-04-20T10:03:47;13.10;;;9.43;;
6388;SDS011;3227;42.654;23.360;2023-04-20T10:06:18;13.93;;;9.97;;
6388;SDS011;3227;42.654;23.360;2023-04-20T10:08:48;13.70;;;10.10;;
6388;SDS011;3227;42.654;23.360;2023-04-20T10:11:26;14.73;;;10.23;;
6388;SDS011;3227;42.654;23.360;2023-04-20T10:13:55;14.33;;;10.50;;
6388;SDS011;3227;42.654;23.360;2023-04-20T10:16:22;14.83;;;10.37;;
6388;SDS011;3227;42.654;23.360;2023-04-20T10:18:55;13.13;;;9.87;;
6388;SDS011;3227;42.654;23.360;2023-04-20T10:21:23;16.13;;;10.13;;
6388;SDS011;3227;42.654;23.360;2023-04-20T10:23:52;14.57;;;9.87;;
6388;SDS011;3227;42.654;23.360;2023-04-20T10:26:19;13.60;;;9.90;;
6388;SDS011;3227;42.654;23.360;2023-04-20T10:28:49;16.27;;;10.10;;
6388;SDS011;3227;42.654;23.360;2023-04-20T10:31:16;14.07;;;10.17;;
6388;SDS011;3227;42.654;23.360;2023-04-20T10:33:51;16.03;;;10.63;;
6388;SDS011;3227;42.654;23.360;2023-04-20T10:36:26;14.13;;;9.60;;
6388;SDS011;3227;42.654;23.360;2023-04-20T10:38:55;16.20;;;10.07;;
6388;SDS011;3227;42.654;23.360;2023-04-20T10:41:22;15.57;;;10.27;;
6388;SDS011;3227;42.654;23.360;2023-04-20T10:43:51;12.93;;;9.40;;
6388;SDS011;3227;42.654;23.360;2023-04-20T10:46:18;14.68;;;10.45;;
6388;SDS011;3227;42.654;23.360;2023-04-20T10:48:50;13.27;;;9.10;;
6388;SDS011;3227;42.654;23.360;2023-04-20T10:51:18;14.20;;;9.90;;
6388;SDS011;3227;42.654;23.360;2023-04-20T10:53:45;14.23;;;8.83;;
6388;SDS011;3227;42.654;23.360;2023-04-20T10:56:12;15.57;;;9.63;;
6388;SDS011;3227;42.654;23.360;2023-04-20T10:58:38;13.10;;;9.37;;
6388;SDS011;3227;42.654;23.360;2023-04-20T11:01:07;13.33;;;8.37;;
6388;SDS011;3227;42.654;23.360;2023-04-20T11:03:34;12.97;;;8.43;;
6388;SDS011;3227;42.654;23.360;2023-04-20T11:06:03;12.77;;;9.10;;
6388;SDS011;3227;42.654;23.360;2023-04-20T11:08:39;16.47;;;8.67;;
6388;SDS011;3227;42.654;23.360;2023-04-20T11:11:17;13.83;;;9.90;;
6388;SDS011;3227;42.654;23.360;2023-04-20T11:13:45;12.93;;;8.50;;
6388;SDS011;3227;42.654;23.360;2023-04-20T11:16:14;12.57;;;8.40;;
6388;SDS011;3227;42.654;23.360;2023-04-20T11:18:47;12.02;;;8.32;;
6388;SDS011;3227;42.654;23.360;2023-04-20T11:21:17;11.30;;;8.30;;
6388;SDS011;3227;42.654;23.360;2023-04-20T11:23:48;11.95;;;7.82;;
6388;SDS011;3227;42.654;23.360;2023-04-20T11:26:15;15.15;;;8.70;;
6388;SDS011;3227;42.654;23.360;2023-04-20T11:28:52;14.57;;;9.47;;
6388;SDS011;3227;42.654;23.360;2023-04-20T11:31:21;11.63;;;8.30;;
6388;SDS011;3227;42.654;23.360;2023-04-20T11:33:47;11.43;;;8.10;;
6388;SDS011;3227;42.654;23.360;2023-04-20T11:36:18;11.97;;;8.27;;
6388;SDS011;3227;42.654;23.360;2023-04-20T11:38:46;13.73;;;9.50;;
6388;SDS011;3227;42.654;23.360;2023-04-20T11:41:13;13.35;;;9.57;;
6388;SDS011;3227;42.654;23.360;2023-04-20T11:43:40;13.73;;;9.73;;
6388;SDS011;3227;42.654;23.360;2023-04-20T11:46:14;13.80;;;8.40;;
6388;SDS011;3227;42.654;23.360;2023-04-20T11:48:43;15.67;;;9.13;;
6388;SDS011;3227;42.654;23.360;2023-04-20T11:51:10;11.60;;;7.83;;
6388;SDS011;3227;42.654;23.360;2023-04-20T11:53:37;11.33;;;8.50;;
6388;SDS011;3227;42.654;23.360;2023-04-20T11:56:04;13.50;;;8.50;;
6388;SDS011;3227;42.654;23.360;2023-04-20T11:58:31;15.18;;;8.27;;
6388;SDS011;3227;42.654;23.360;2023-04-20T12:00:58;12.53;;;7.60;;
6388;SDS011;3227;42.654;23.360;2023-04-20T12:03:25;14.60;;;8.10;;
6388;SDS011;3227;42.654;23.360;2023-04-20T12:05:53;11.05;;;8.18;;
6388;SDS011;3227;42.654;23.360;2023-04-20T12:08:20;10.43;;;8.00;;
6388;SDS011;3227;42.654;23.360;2023-04-20T12:10:48;13.73;;;8.10;;
6388;SDS011;3227;42.654;23.360;2023-04-20T12:13:15;11.50;;;7.50;;
6388;SDS011;3227;42.654;23.360;2023-04-20T12:15:41;11.20;;;7.27;;
6388;SDS011;3227;42.654;23.360;2023-04-20T12:18:08;14.53;;;7.83;;
6388;SDS011;3227;42.654;23.360;2023-04-20T12:20:36;12.40;;;7.37;;
6388;SDS011;3227;42.654;23.360;2023-04-20T12:23:04;10.68;;;7.93;;
6388;SDS011;3227;42.654;23.360;2023-04-20T12:25:31;11.17;;;7.23;;
6388;SDS011;3227;42.654;23.360;2023-04-20T12:27:58;11.13;;;7.75;;
6388;SDS011;3227;42.654;23.360;2023-04-20T12:30:29;12.57;;;7.97;;
6388;SDS011;3227;42.654;23.360;2023-04-20T12:32:56;13.83;;;7.53;;
6388;SDS011;3227;42.654;23.360;2023-04-20T12:35:23;10.20;;;7.77;;
6388;SDS011;3227;42.654;23.360;2023-04-20T12:37:50;12.90;;;7.70;;
6388;SDS011;3227;42.654;23.360;2023-04-20T12:40:18;15.43;;;7.93;;
6388;SDS011;3227;42.654;23.360;2023-04-20T12:42:45;11.77;;;7.30;;
6388;SDS011;3227;42.654;23.360;2023-04-20T12:45:12;14.13;;;7.70;;
6388;SDS011;3227;42.654;23.360;2023-04-20T12:47:39;14.37;;;7.70;;
6388;SDS011;3227;42.654;23.360;2023-04-20T12:50:06;12.57;;;7.27;;
6388;SDS011;3227;42.654;23.360;2023-04-20T12:52:33;11.10;;;8.00;;
6388;SDS011;3227;42.654;23.360;2023-04-20T12:55:00;11.20;;;8.13;;
6388;SDS011;3227;42.654;23.360;2023-04-20T12:57:29;10.80;;;7.77;;
6388;SDS011;3227;42.654;23.360;2023-04-20T12:59:55;13.20;;;7.50;;
6388;SDS011;3227;42.654;23.360;2023-04-20T13:02:22;12.27;;;7.60;;
6388;SDS011;3227;42.654;23.360;2023-04-20T13:04:50;10.37;;;6.87;;
6388;SDS011;3227;42.654;23.360;2023-04-20T13:07:18;11.70;;;7.00;;
6388;SDS011;3227;42.654;23.360;2023-04-20T13:09:54;14.17;;;6.97;;
6388;SDS011;3227;42.654;23.360;2023-04-20T13:12:21;7.97;;;4.90;;
6388;SDS011;3227;42.654;23.360;2023-04-20T13:14:50;8.70;;;5.40;;
6388;SDS011;3227;42.654;23.360;2023-04-20T13:17:17;8.60;;;5.60;;
6388;SDS011;3227;42.654;23.360;2023-04-20T13:19:44;9.83;;;6.57;;
6388;SDS011;3227;42.654;23.360;2023-04-20T13:22:12;10.30;;;6.73;;
6388;SDS011;3227;42.654;23.360;2023-04-20T13:24:39;10.63;;;6.30;;
6388;SDS011;3227;42.654;23.360;2023-04-20T13:27:05;8.17;;;5.63;;
6388;SDS011;3227;42.654;23.360;2023-04-20T13:29:32;8.80;;;5.00;;
6388;SDS011;3227;42.654;23.360;2023-04-20T13:32:00;7.93;;;4.90;;
6388;SDS011;3227;42.654;23.360;2023-04-20T13:34:27;8.20;;;5.37;;
6388;SDS011;3227;42.654;23.360;2023-04-20T13:36:54;8.93;;;5.70;;
6388;SDS011;3227;42.654;23.360;2023-04-20T13:39:22;8.03;;;5.30;;
6388;SDS011;3227;42.654;23.360;2023-04-20T13:41:51;11.00;;;6.72;;
6388;SDS011;3227;42.654;23.360;2023-04-20T13:44:18;9.70;;;6.67;;
6388;SDS011;3227;42.654;23.360;2023-04-20T13:46:45;9.70;;;6.47;;
6388;SDS011;3227;42.654;23.360;2023-04-20T13:49:14;10.27;;;6.90;;
6388;SDS011;3227;42.654;23.360;2023-04-20T13:51:41;8.60;;;6.40;;
6388;SDS011;3227;42.654;23.360;2023-04-20T13:54:08;9.07;;;6.60;;
6388;SDS011;3227;42.654;23.360;2023-04-20T13:56:35;10.73;;;6.50;;
6388;SDS011;3227;42.654;23.360;2023-04-20T13:59:02;11.18;;;7.00;;
6388;SDS011;3227;42.654;23.360;2023-04-20T14:01:29;10.48;;;6.93;;
6388;SDS011;3227;42.654;23.360;2023-04-20T14:03:56;10.53;;;6.40;;
6388;SDS011;3227;42.654;23.360;2023-04-20T14:06:24;13.90;;;7.20;;
6388;SDS011;3227;42.654;23.360;2023-04-20T14:08:51;10.07;;;6.60;;
6388;SDS011;3227;42.654;23.360;2023-04-20T14:11:18;11.37;;;6.93;;
6388;SDS011;3227;42.654;23.360;2023-04-20T14:13:45;9.60;;;6.72;;
6388;SDS011;3227;42.654;23.360;2023-04-20T14:16:12;8.93;;;6.63;;
6388;SDS011;3227;42.654;23.360;2023-04-20T14:18:39;12.43;;;7.23;;
6388;SDS011;3227;42.654;23.360;2023-04-20T14:21:06;9.07;;;6.67;;
6388;SDS011;3227;42.654;23.360;2023-04-20T14:23:34;11.07;;;6.97;;
6388;SDS011;3227;42.654;23.360;2023-04-20T14:26:01;9.77;;;6.73;;
6388;SDS011;3227;42.654;23.360;2023-04-20T14:28:28;9.60;;;6.00;;
6388;SDS011;3227;42.654;23.360;2023-04-20T14:30:55;8.50;;;6.07;;
6388;SDS011;3227;42.654;23.360;2023-04-20T14:33:22;9.73;;;6.57;;
6388;SDS011;3227;42.654;23.360;2023-04-20T14:35:49;12.85;;;6.90;;
6388;SDS011;3227;42.654;23.360;2023-04-20T14:38:16;12.07;;;6.70;;
6388;SDS011;3227;42.654;23.360;2023-04-20T14:40:44;12.13;;;6.70;;
6388;SDS011;3227;42.654;23.360;2023-04-20T14:43:12;10.57;;;6.40;;
6388;SDS011;3227;42.654;23.360;2023-04-20T14:45:39;10.07;;;6.43;;